AirNav   Air Wisconsin pilot careers
 
 896 users online  

3MO5 Nimsick Airport
Carthage, Missouri, USA

GOING TO CARTHAGE?


FAA INFORMATION EFFECTIVE 08 NOVEMBER 2018

Location

FAA Identifier: 3MO5
Lat/Long: 37-07-41.2130N / 094-12-58.0000W
37-07.686883N / 094-12.966667W
37.1281147 / -94.2161111
(estimated)
Elevation: 1095 ft. / 334 m (estimated)
Variation: 04E (1990)
From city: 5 miles SE of CARTHAGE, MO
Time zone: UTC -6 (UTC -5 during Daylight Saving Time)
Zip code: 64836

Airport Operations

Airport use: Private use. Permission required prior to landing
Activation date: 05/1992
Control tower: no
ARTCC: KANSAS CITY CENTER
FSS: COLUMBIA FLIGHT SERVICE STATION
Attendance: UNATNDD
Wind indicator: yes
Segmented circle: no

Airport Communications

WX ASOS at JLN (14 nm W): 120.85 (417-623-8892)
WX AWOS-3 at HFJ (16 nm SE): 118.275 (417-476-2613)

Nearby radio navigation aids

VOR radial/distance  VOR name  Freq  Var
EOSr025/20.1NEOSHO VOR/DME117.3007E

Airport Services

Runway Information

Runway 18/36

Dimensions: 2600 x 65 ft. / 792 x 20 m
Surface: turf
RUNWAY 18  RUNWAY 36
Traffic pattern: leftleft
Obstructions: 50 ft. pline, marked, 1300 ft. from runway30 ft. pline

Airport Ownership and Management from official FAA records

Ownership: Privately-owned
Owner: ROBERT NIMSICK
8819 ELM RD
CARTHAGE, MO 64836
Phone 417-358-4324
CELL: 417-793-1431
Manager: ROBERT NIMSICK
8819 ELM RD
CARTHAGE, MO 64836
Phone 417-538-4324

Airport Operational Statistics

Aircraft based on the field: 1
Single engine airplanes: 1
    

Instrument Procedures

There are no published instrument procedures at 3MO5.

Some nearby airports with instrument procedures:

KJLN - Joplin Regional Airport (14 nm W)
KHFJ - Monett Regional Airport (16 nm SE)
KEOS - Neosho Hugh Robinson Airport (21 nm SW)
KLLU - Lamar Municipal Airport (22 nm N)
2H2 - Jerry Sumners Sr. Aurora Municipal Airport (27 nm E)
 
Loc | Ops | Rwys | IFR | FBO | Links
Com | Nav | Svcs | Stats | Notes

Kansas City Aviation Department
 
Area around 3MO5 (Nimsick Airport)
 
Road maps at: MapQuest Bing Google
 
Aerial photo
WARNING: Photo may not be current or correct
Aerial photo of 3MO5 (Nimsick Airport)
Do you have a better or more recent aerial photo of Nimsick Airport that you would like to share? If so, please send us your photo.

 
Sectional chart

 
Airport distance calculator
Flying to Nimsick Airport? Find the distance to fly.

From to 3MO5

Sunrise and sunset
Times for 18-Nov-2018
 Local
(UTC-6)
 Zulu
(UTC)
Morning civil twilight06:3212:32
Sunrise07:0013:00
Sunset17:0423:04
Evening civil twilight17:3223:32

Current date and time
Zulu (UTC)  18-Nov-2018 19:02:37
Local (UTC-6)  18-Nov-2018 13:02:37
 
METAR
KJLN 
14nm W 
181853Z 35008KT 5SM BR OVC006 01/M01 A3026 RMK AO2 SLP252 T00061006
KHFJ 
16nm SE 
181855Z AUTO 36009KT 5SM DZ OVC004 00/00 A3021 RMK AO2
KEOS 
21nm SW 
SuperAWOS
181835Z AUTO 01004KT 3 1/2SM BR 00/00 A3021
TAF
KJLN 
14nm W 
181720Z 1818/1918 36010KT 2SM -DZ BR OVC003 FM182000 01007KT 4SM -DZ BR OVC007 FM190100 VRB04KT 6SM BR OVC007 FM191300 24005KT P6SM SKC
NOTAMs
Click for the latest NOTAMs
NOTAMs are issued by the DoD/FAA and will open in a separate window not controlled by AirNav.

 

 
 

Would you like to see your business listed on this page?

 If your business provides an interesting product or service to pilots, flight crews, aircraft, or users of the Nimsick Airport, you should consider listing it here.  To start the listing process, click on the button below
 
Add a business
 

Other Pages about Nimsick Airport

Update a link
 
Copyright © AirNav, LLC. All rights reserved. Privacy Policy  Contact